createdAt,value
2022-09-07T00:00:00.000Z,69.02
2022-09-07T00:15:00.000Z,69.32
2022-09-07T00:30:00.000Z,70
2022-09-07T00:45:00.000Z,69.61
2022-09-07T01:00:00.000Z,69.92
2022-09-07T01:15:00.000Z,70.21
2022-09-07T01:30:00.000Z,70.66
2022-09-07T01:45:00.000Z,71.74
2022-09-07T02:00:00.000Z,72.8
2022-09-07T02:15:00.000Z,74.12
2022-09-07T02:30:00.000Z,75.53
2022-09-07T02:45:00.000Z,74.74
2022-09-07T03:00:00.000Z,73.45
2022-09-07T03:15:00.000Z,76.61
2022-09-07T03:30:00.000Z,79.28
2022-09-07T03:45:00.000Z,80.45
2022-09-07T04:00:00.000Z,80.43
2022-09-07T04:15:00.000Z,81.05
2022-09-07T04:30:00.000Z,81.53
2022-09-07T04:45:00.000Z,81.87
2022-09-07T05:00:00.000Z,80.59
2022-09-07T05:15:00.000Z,77.31
2022-09-07T05:30:00.000Z,75.46
2022-09-07T05:45:00.000Z,72.87
2022-09-07T06:00:00.000Z,71.34
2022-09-07T06:15:00.000Z,71.47
2022-09-07T06:30:00.000Z,67.77
2022-09-07T06:45:00.000Z,64.15
2022-09-07T07:00:00.000Z,63.43
2022-09-07T07:15:00.000Z,63.75
2022-09-07T07:45:00.000Z,64.24
2022-09-07T08:00:00.000Z,62.52
2022-09-07T08:15:00.000Z,60.9
2022-09-07T08:30:00.000Z,58.77
2022-09-07T08:45:00.000Z,53.46
2022-09-07T09:00:00.000Z,54.23
2022-09-07T09:15:00.000Z,52.96
2022-09-07T09:30:00.000Z,48.96
2022-09-07T09:45:00.000Z,44.33
2022-09-07T10:00:00.000Z,45.28
2022-09-07T10:15:00.000Z,45.72
2022-09-07T10:30:00.000Z,43.92
2022-09-07T10:45:00.000Z,42.34
2022-09-07T11:00:00.000Z,42.28
2022-09-07T11:15:00.000Z,43.64
2022-09-07T11:30:00.000Z,43.48
2022-09-07T11:45:00.000Z,44.01
2022-09-07T12:00:00.000Z,44.31
2022-09-07T12:15:00.000Z,44.67
2022-09-07T12:30:00.000Z,45.21
2022-09-07T12:45:00.000Z,45.24
2022-09-07T13:00:00.000Z,45.76
2022-09-07T13:15:00.000Z,45.13
2022-09-07T13:30:00.000Z,44.7
2022-09-07T13:45:00.000Z,45.05
2022-09-07T14:00:00.000Z,45.17
2022-09-07T14:15:00.000Z,45.53
2022-09-07T14:30:00.000Z,47.17
2022-09-07T14:45:00.000Z,49.17
2022-09-07T15:00:00.000Z,50.71
2022-09-07T15:15:00.000Z,52.07
2022-09-07T15:30:00.000Z,53.91
2022-09-07T15:45:00.000Z,53.3
2022-09-07T16:00:00.000Z,53.39
2022-09-07T16:15:00.000Z,54.33
2022-09-07T16:45:00.000Z,56.83
2022-09-07T17:00:00.000Z,58.17
2022-09-07T17:15:00.000Z,59.91
2022-09-07T17:30:00.000Z,61.45
2022-09-07T17:45:00.000Z,62.08
2022-09-07T18:00:00.000Z,62.7
2022-09-07T18:15:00.000Z,64.6
2022-09-07T18:30:00.000Z,68.37
2022-09-07T18:45:00.000Z,68.36
2022-09-07T19:00:00.000Z,66.84
2022-09-07T19:15:00.000Z,67.03
2022-09-07T19:30:00.000Z,68.35
2022-09-07T19:45:00.000Z,68.58
2022-09-07T20:00:00.000Z,69.02
2022-09-07T20:15:00.000Z,70.18
2022-09-07T20:30:00.000Z,71.4
2022-09-07T20:45:00.000Z,71.74
2022-09-07T21:00:00.000Z,71.67
2022-09-07T21:15:00.000Z,69.53
2022-09-07T21:30:00.000Z,71.09
2022-09-07T21:45:00.000Z,74.39
2022-09-07T22:00:00.000Z,76.52
2022-09-07T22:15:00.000Z,77.64
2022-09-07T22:30:00.000Z,79.25
2022-09-07T22:45:00.000Z,78.71
2022-09-07T23:00:00.000Z,77.81
2022-09-07T23:15:00.000Z,76.65
2022-09-07T23:30:00.000Z,76.12
2022-09-07T23:45:00.000Z,74.45
